createdAt,value
2018-03-03T00:00:32.510Z,21.1
2018-03-03T00:01:22.854Z,21.1
2018-03-03T00:02:12.417Z,-97
2018-03-03T00:03:02.695Z,21.1
2018-03-03T00:03:53.053Z,21.1
2018-03-03T00:04:42.778Z,21.1
2018-03-03T00:05:32.560Z,21.1
2018-03-03T00:06:22.035Z,21.1
2018-03-03T00:07:12.649Z,21.1
2018-03-03T00:08:02.930Z,-97
2018-03-03T00:08:53.075Z,21.1
2018-03-03T00:09:42.832Z,21.1
2018-03-03T00:10:32.985Z,21.1
2018-03-03T00:11:23.258Z,21.1
2018-03-03T00:12:13.002Z,21.1
2018-03-03T00:13:03.172Z,21.1
2018-03-03T00:13:53.197Z,21.1
2018-03-03T00:14:43.179Z,21.1
2018-03-03T00:15:33.540Z,21.1
2018-03-03T00:16:23.270Z,21.1
2018-03-03T00:17:13.916Z,21.1
2018-03-03T00:18:03.979Z,21.1
2018-03-03T00:18:53.470Z,21.1
2018-03-03T00:19:43.227Z,21.1
2018-03-03T00:20:33.359Z,21.1
2018-03-03T00:21:23.431Z,21.1
2018-03-03T00:22:13.494Z,21.1
2018-03-03T00:23:03.248Z,21.1
2018-03-03T00:23:53.791Z,21.1
2018-03-03T00:24:43.639Z,21.1
2018-03-03T00:25:34.012Z,21
2018-03-03T00:26:23.969Z,21
2018-03-03T00:27:13.825Z,21.1
2018-03-03T00:28:04.095Z,21.1
2018-03-03T00:28:54.153Z,21.1
2018-03-03T00:29:44.180Z,21.1
2018-03-03T00:30:34.555Z,21.1
2018-03-03T00:31:24.314Z,21
2018-03-03T00:32:14.070Z,21
2018-03-03T00:33:04.411Z,21
2018-03-03T00:33:54.152Z,21
2018-03-03T00:34:44.326Z,21
2018-03-03T00:35:34.180Z,21
2018-03-03T00:36:24.937Z,21
2018-03-03T00:37:15.287Z,21
2018-03-03T00:38:05.053Z,21
2018-03-03T00:38:55.408Z,21
2018-03-03T00:39:44.562Z,21
2018-03-03T00:40:34.630Z,21
2018-03-03T00:41:25.277Z,21
2018-03-03T00:42:14.850Z,21
2018-03-03T00:43:04.884Z,21
2018-03-03T00:43:54.853Z,21
2018-03-03T00:44:45.501Z,21
2018-03-03T00:45:35.829Z,21
2018-03-03T00:46:25.317Z,21
2018-03-03T00:47:15.380Z,21
2018-03-03T00:48:05.988Z,21
2018-03-03T00:48:55.769Z,21
2018-03-03T00:49:45.628Z,21
2018-03-03T00:50:35.884Z,21
2018-03-03T00:51:25.525Z,21
2018-03-03T00:52:15.418Z,21
2018-03-03T00:53:05.847Z,21
2018-03-03T00:53:55.804Z,21
2018-03-03T00:54:45.590Z,21
2018-03-03T00:55:36.194Z,21
2018-03-03T00:56:26.368Z,21
2018-03-03T00:57:16.044Z,21
2018-03-03T00:58:06.177Z,21
2018-03-03T00:58:56.249Z,21
2018-03-03T00:59:46.015Z,21
2018-03-03T01:00:36.849Z,21
2018-03-03T01:01:26.406Z,21
2018-03-03T01:02:16.386Z,-97
2018-03-03T01:03:06.430Z,-97
2018-03-03T01:03:56.587Z,-97
2018-03-03T01:04:46.811Z,-97
2018-03-03T01:05:36.906Z,85
2018-03-03T01:06:26.936Z,20.9
2018-03-03T01:07:17.296Z,21
2018-03-03T01:08:06.778Z,20.9
2018-03-03T01:08:56.623Z,21
2018-03-03T01:09:47.481Z,20.9
2018-03-03T01:10:36.993Z,20.9
2018-03-03T01:11:27.278Z,20.9
2018-03-03T01:12:17.601Z,20.9
2018-03-03T01:13:07.122Z,20.9
2018-03-03T01:13:57.269Z,20.9
2018-03-03T01:14:47.322Z,20.9
2018-03-03T01:15:36.878Z,20.9
2018-03-03T01:16:27.146Z,20.9
2018-03-03T01:17:17.193Z,20.9
2018-03-03T01:18:07.446Z,20.9
2018-03-03T01:18:58.073Z,20.9
2018-03-03T01:19:47.857Z,20.9
2018-03-03T01:20:38.180Z,20.9
2018-03-03T01:21:27.388Z,20.9
2018-03-03T01:22:17.619Z,20.9
2018-03-03T01:23:07.280Z,20.9
2018-03-03T01:23:57.835Z,20.9
2018-03-03T01:24:47.610Z,20.9
2018-03-03T01:25:38.240Z,20.9
2018-03-03T01:26:28.453Z,20.9
2018-03-03T01:27:18.360Z,20.9
2018-03-03T01:28:08.215Z,20.9
2018-03-03T01:28:58.467Z,20.9
2018-03-03T01:29:48.812Z,20.9
2018-03-03T01:30:38.573Z,20.9
2018-03-03T01:31:28.902Z,20.9
2018-03-03T01:32:18.389Z,20.9
2018-03-03T01:33:08.447Z,20.9
2018-03-03T01:33:58.807Z,20.9
2018-03-03T01:34:49.167Z,20.9
2018-03-03T01:35:38.127Z,20.9
2018-03-03T01:36:28.966Z,20.9
2018-03-03T01:37:18.760Z,20.9
2018-03-03T01:38:08.488Z,20.9
2018-03-03T01:38:58.852Z,20.9
2018-03-03T01:39:49.010Z,20.9
2018-03-03T01:40:39.237Z,20.9
2018-03-03T01:41:29.340Z,20.9
2018-03-03T01:42:19.375Z,20.9
2018-03-03T01:43:09.217Z,20.9
2018-03-03T01:43:58.986Z,20.9
2018-03-03T01:44:49.127Z,20.9
2018-03-03T01:45:39.579Z,20.9
2018-03-03T01:46:29.659Z,20.9
2018-03-03T01:47:19.476Z,20.9
2018-03-03T01:48:10.063Z,20.9
2018-03-03T01:49:00.089Z,20.9
2018-03-03T01:49:49.576Z,20.9
2018-03-03T01:50:39.644Z,20.9
2018-03-03T01:51:29.698Z,20.9
2018-03-03T01:52:20.117Z,20.9
2018-03-03T01:53:09.911Z,20.9
2018-03-03T01:53:59.664Z,20.9
2018-03-03T01:54:50.196Z,20.9
2018-03-03T01:55:39.963Z,20.9
2018-03-03T01:56:30.198Z,20.9
2018-03-03T01:57:19.682Z,20.9
2018-03-03T01:58:10.695Z,20.9
2018-03-03T01:59:00.772Z,20.9
2018-03-03T01:59:50.343Z,20.9
2018-03-03T02:00:40.894Z,20.9
2018-03-03T02:01:30.655Z,20.9
2018-03-03T02:02:20.515Z,20.9
2018-03-03T02:03:10.277Z,20.9
2018-03-03T02:04:01.115Z,20.9
2018-03-03T02:04:50.670Z,20.9
2018-03-03T02:05:41.255Z,20.9
2018-03-03T02:06:30.978Z,20.9
2018-03-03T02:07:21.148Z,20.9
2018-03-03T02:08:10.633Z,20.9
2018-03-03T02:09:01.479Z,20.9
2018-03-03T02:09:50.633Z,20.9
2018-03-03T02:10:40.988Z,20.9
2018-03-03T02:11:31.125Z,20.8
2018-03-03T02:12:21.380Z,20.9
2018-03-03T02:13:10.941Z,20.9
2018-03-03T02:14:01.211Z,20.9
2018-03-03T02:14:51.661Z,20.9
2018-03-03T02:15:41.588Z,20.9
2018-03-03T02:16:31.388Z,20.9
2018-03-03T02:17:21.423Z,20.9
2018-03-03T02:18:11.799Z,20.9
2018-03-03T02:19:01.955Z,20.9
2018-03-03T02:19:51.407Z,20.9
2018-03-03T02:20:41.725Z,20.8
2018-03-03T02:21:32.302Z,20.9
2018-03-03T02:22:21.629Z,20.9
2018-03-03T02:23:11.712Z,20.9
2018-03-03T02:24:01.880Z,20.8
2018-03-03T02:24:51.663Z,20.9
2018-03-03T02:25:41.704Z,20.8
2018-03-03T02:26:31.851Z,20.9
2018-03-03T02:27:22.387Z,20.8
2018-03-03T02:28:12.472Z,20.9
2018-03-03T02:29:02.407Z,20.9
2018-03-03T02:29:52.282Z,20.9
2018-03-03T02:30:42.220Z,20.8
2018-03-03T02:31:32.684Z,20.8
2018-03-03T02:32:22.159Z,20.8
2018-03-03T02:33:12.789Z,20.8
2018-03-03T02:34:03.125Z,20.9
2018-03-03T02:34:53.199Z,20.8
2018-03-03T02:35:43.224Z,20.8
2018-03-03T02:36:33.305Z,20.8
2018-03-03T02:37:23.084Z,20.8
2018-03-03T02:38:13.113Z,20.8
2018-03-03T02:39:03.462Z,20.8
2018-03-03T02:39:53.228Z,20.8
2018-03-03T02:40:43.285Z,20.8
2018-03-03T02:41:33.651Z,20.8
2018-03-03T02:42:23.686Z,20.8
2018-03-03T02:43:13.745Z,20.8
2018-03-03T02:44:03.503Z,20.8
2018-03-03T02:44:53.866Z,20.8
2018-03-03T02:45:43.828Z,20.8
2018-03-03T02:46:33.672Z,20.8
2018-03-03T02:47:24.209Z,20.8
2018-03-03T02:48:14.106Z,20.8
2018-03-03T02:49:03.889Z,20.8
2018-03-03T02:49:53.890Z,20.8
2018-03-03T02:50:43.495Z,20.8
2018-03-03T02:51:34.302Z,20.8
2018-03-03T02:52:24.087Z,20.8
2018-03-03T02:53:13.558Z,20.8
2018-03-03T02:54:04.213Z,20.8
2018-03-03T02:54:53.955Z,20.8
2018-03-03T02:55:44.305Z,20.8
2018-03-03T02:56:34.468Z,20.8
2018-03-03T02:57:24.130Z,20.8
2018-03-03T02:58:14.461Z,20.8
2018-03-03T02:59:04.243Z,20.8
2018-03-03T02:59:54.307Z,20.8
2018-03-03T03:00:44.657Z,20.8
2018-03-03T03:01:34.508Z,20.8
2018-03-03T03:02:24.181Z,20.8
2018-03-03T03:03:14.548Z,20.8
2018-03-03T03:04:04.890Z,20.8
2018-03-03T03:04:55.015Z,20.8
2018-03-03T03:05:45.266Z,20.8
2018-03-03T03:06:34.752Z,20.8
2018-03-03T03:07:25.398Z,20.8
2018-03-03T03:08:14.857Z,20.8
2018-03-03T03:09:05.510Z,20.8
2018-03-03T03:09:54.480Z,20.8
2018-03-03T03:10:45.335Z,20.8
2018-03-03T03:11:35.684Z,20.8
2018-03-03T03:12:25.135Z,20.8
2018-03-03T03:13:14.717Z,20.8
2018-03-03T03:14:04.827Z,20.8
2018-03-03T03:14:55.415Z,20.8
2018-03-03T03:15:45.466Z,20.8
2018-03-03T03:16:34.864Z,20.8
2018-03-03T03:17:25.764Z,20.8
2018-03-03T03:18:16.120Z,20.8
2018-03-03T03:19:05.599Z,20.8
2018-03-03T03:19:56.252Z,20.8
2018-03-03T03:20:45.602Z,20.8
2018-03-03T03:21:35.740Z,20.8
2018-03-03T03:22:26.101Z,20.8
2018-03-03T03:23:16.066Z,20.8
2018-03-03T03:24:05.747Z,20.8
2018-03-03T03:24:56.270Z,20.8
2018-03-03T03:25:45.553Z,20.8
2018-03-03T03:26:36.639Z,20.8
2018-03-03T03:27:25.859Z,20.8
2018-03-03T03:28:16.514Z,20.8
2018-03-03T03:29:06.284Z,20.8
2018-03-03T03:29:56.043Z,20.8
2018-03-03T03:30:46.385Z,20.8
2018-03-03T03:31:36.737Z,20.8
2018-03-03T03:32:26.569Z,20.8
2018-03-03T03:33:16.554Z,20.8
2018-03-03T03:34:06.996Z,20.8
2018-03-03T03:34:56.657Z,20.8
2018-03-03T03:35:47.307Z,20.8
2018-03-03T03:36:36.763Z,20.8
2018-03-03T03:37:26.734Z,20.8
2018-03-03T03:38:17.143Z,20.8
2018-03-03T03:39:07.146Z,20.8
2018-03-03T03:39:56.695Z,20.8
2018-03-03T03:40:46.855Z,20.8
2018-03-03T03:41:37.682Z,20.8
2018-03-03T03:42:27.752Z,20.8
2018-03-03T03:43:17.023Z,20.8
2018-03-03T03:44:07.863Z,20.8
2018-03-03T03:44:57.705Z,20.8
2018-03-03T03:45:47.688Z,20.8
2018-03-03T03:46:37.750Z,20.8
2018-03-03T03:47:28.084Z,20.8
2018-03-03T03:48:18.157Z,20.8
2018-03-03T03:49:07.620Z,20.8
2018-03-03T03:49:57.673Z,20.8
2018-03-03T03:50:47.704Z,20.8
2018-03-03T03:51:37.207Z,20.8
2018-03-03T03:52:28.095Z,20.7
2018-03-03T03:53:17.400Z,20.8
2018-03-03T03:54:08.248Z,20.8
2018-03-03T03:54:58.304Z,20.7
2018-03-03T03:55:47.664Z,20.8
2018-03-03T03:56:38.667Z,20.8
2018-03-03T03:57:28.711Z,20.7
2018-03-03T03:58:18.499Z,20.8
2018-03-03T03:59:08.834Z,20.7
2018-03-03T03:59:58.607Z,20.7
2018-03-03T04:00:48.676Z,20.7
2018-03-03T04:01:39.020Z,20.7
2018-03-03T04:02:29.065Z,20.8
2018-03-03T04:03:19.163Z,20.7
2018-03-03T04:04:08.613Z,20.7
2018-03-03T04:04:58.681Z,20.7
2018-03-03T04:05:49.313Z,20.7
2018-03-03T04:06:38.794Z,20.7
2018-03-03T04:07:29.130Z,20.7
2018-03-03T04:08:19.542Z,20.7
2018-03-03T04:09:09.544Z,20.7
2018-03-03T04:09:59.006Z,20.7
2018-03-03T04:10:49.628Z,20.7
2018-03-03T04:11:39.415Z,20.7
2018-03-03T04:12:29.276Z,20.8
2018-03-03T04:13:19.326Z,20.8
2018-03-03T04:14:09.109Z,20.8
2018-03-03T04:14:59.377Z,20.7
2018-03-03T04:15:49.398Z,20.7
2018-03-03T04:16:39.466Z,20.7
2018-03-03T04:17:30.096Z,20.7
2018-03-03T04:18:19.676Z,20.7
2018-03-03T04:19:09.635Z,20.8
2018-03-03T04:19:59.682Z,20.8
2018-03-03T04:20:50.048Z,20.7
2018-03-03T04:21:39.509Z,20.7
2018-03-03T04:22:30.140Z,20.7
2018-03-03T04:23:20.185Z,20.7
2018-03-03T04:24:10.539Z,20.8
2018-03-03T04:25:00.330Z,20.7
2018-03-03T04:25:50.492Z,20.7
2018-03-03T04:26:40.440Z,20.7
2018-03-03T04:27:30.290Z,20.7
2018-03-03T04:28:20.357Z,20.7
2018-03-03T04:29:10.885Z,20.7
2018-03-03T04:30:00.646Z,20.7
2018-03-03T04:30:50.754Z,20.7
2018-03-03T04:31:40.466Z,20.7
2018-03-03T04:32:30.528Z,20.7
2018-03-03T04:33:20.884Z,20.7
2018-03-03T04:34:11.195Z,20.7
2018-03-03T04:35:01.000Z,20.7
2018-03-03T04:35:51.037Z,20.7
2018-03-03T04:36:40.930Z,20.7
2018-03-03T04:37:30.382Z,20.7
2018-03-03T04:38:20.737Z,20.7
2018-03-03T04:39:10.706Z,20.7
2018-03-03T04:40:01.329Z,20.7
2018-03-03T04:40:50.818Z,20.7
2018-03-03T04:41:40.869Z,20.7
2018-03-03T04:42:31.020Z,20.7
2018-03-03T04:43:21.063Z,20.7
2018-03-03T04:44:11.311Z,20.7
2018-03-03T04:45:01.962Z,20.7
2018-03-03T04:45:51.991Z,20.7
2018-03-03T04:46:41.765Z,20.7
2018-03-03T04:47:31.813Z,20.7
2018-03-03T04:48:21.426Z,20.7
2018-03-03T04:49:12.105Z,20.7
2018-03-03T04:50:02.032Z,20.7
2018-03-03T04:50:52.335Z,20.7
2018-03-03T04:51:42.423Z,20.7
2018-03-03T04:52:32.449Z,20.7
2018-03-03T04:53:22.508Z,20.7
2018-03-03T04:54:12.570Z,20.7
2018-03-03T04:55:02.601Z,20.7
2018-03-03T04:55:52.401Z,20.7
2018-03-03T04:56:42.468Z,20.7
2018-03-03T04:57:32.502Z,20.8
2018-03-03T04:58:22.058Z,20.7
2018-03-03T04:59:12.330Z,20.8
2018-03-03T05:00:01.900Z,20.7
2018-03-03T05:00:52.991Z,20.8
2018-03-03T05:01:42.599Z,20.7
2018-03-03T05:02:32.872Z,20.8
2018-03-03T05:03:22.416Z,20.8
2018-03-03T05:04:12.949Z,20.7
2018-03-03T05:05:02.830Z,20.8
2018-03-03T05:05:53.060Z,20.7
2018-03-03T05:06:42.644Z,20.7
2018-03-03T05:07:33.237Z,20.7
2018-03-03T05:08:23.227Z,20.7
2018-03-03T05:09:12.702Z,20.7
2018-03-03T05:10:03.062Z,20.8
2018-03-03T05:10:53.142Z,20.8
2018-03-03T05:11:43.446Z,20.8
2018-03-03T05:12:33.522Z,20.7
2018-03-03T05:13:23.846Z,20.8
2018-03-03T05:14:13.764Z,20.8
2018-03-03T05:15:02.916Z,20.8
2018-03-03T05:15:53.819Z,20.8
2018-03-03T05:16:43.326Z,20.7
2018-03-03T05:17:33.645Z,20.8
2018-03-03T05:18:23.218Z,20.8
2018-03-03T05:19:14.009Z,20.7
2018-03-03T05:20:04.109Z,20.8
2018-03-03T05:20:53.584Z,20.7
2018-03-03T05:21:44.129Z,20.7
2018-03-03T05:22:33.883Z,20.7
2018-03-03T05:23:24.236Z,20.8
2018-03-03T05:24:14.354Z,20.7
2018-03-03T05:25:04.376Z,20.8
2018-03-03T05:25:53.834Z,20.8
2018-03-03T05:26:44.196Z,20.8
2018-03-03T05:27:34.145Z,20.8
2018-03-03T05:28:24.793Z,20.8
2018-03-03T05:29:14.169Z,20.8
2018-03-03T05:30:04.418Z,20.8
2018-03-03T05:30:54.776Z,20.8
2018-03-03T05:31:44.905Z,20.8
2018-03-03T05:32:34.756Z,20.8
2018-03-03T05:33:24.926Z,20.8
2018-03-03T05:34:14.794Z,20.8
2018-03-03T05:35:05.335Z,20.8
2018-03-03T05:35:54.513Z,20.8
2018-03-03T05:36:44.863Z,20.8
2018-03-03T05:37:35.000Z,20.8
2018-03-03T05:38:25.539Z,20.8
2018-03-03T05:39:14.832Z,20.8
2018-03-03T05:40:05.088Z,20.8
2018-03-03T05:40:55.725Z,20.8
2018-03-03T05:41:45.812Z,20.8
2018-03-03T05:42:35.245Z,20.8
2018-03-03T05:43:25.216Z,20.8
2018-03-03T05:44:15.368Z,20.8
2018-03-03T05:45:05.228Z,20.8
2018-03-03T05:45:55.780Z,20.8
2018-03-03T05:46:46.098Z,20.8
2018-03-03T05:47:36.166Z,20.8
2018-03-03T05:48:25.935Z,20.8
2018-03-03T05:49:15.800Z,20.8
2018-03-03T05:50:06.366Z,20.8
2018-03-03T05:50:55.817Z,20.8
2018-03-03T05:51:45.872Z,20.8
2018-03-03T05:52:35.921Z,20.8
2018-03-03T05:53:25.795Z,20.8
2018-03-03T05:54:16.040Z,20.8
2018-03-03T05:55:06.664Z,20.8
2018-03-03T05:55:56.554Z,20.8
2018-03-03T05:56:46.287Z,20.8
2018-03-03T05:57:35.967Z,20.8
2018-03-03T05:58:26.312Z,20.8
2018-03-03T05:59:16.472Z,20.8
2018-03-03T06:00:06.999Z,20.8
2018-03-03T06:00:56.203Z,20.8
2018-03-03T06:01:46.866Z,20.8
2018-03-03T06:02:37.169Z,20.8
2018-03-03T06:03:27.259Z,20.8
2018-03-03T06:04:17.080Z,20.8
2018-03-03T06:05:07.061Z,20.8
2018-03-03T06:05:57.397Z,20.8
2018-03-03T06:06:47.172Z,20.8
2018-03-03T06:07:37.487Z,20.8
2018-03-03T06:08:27.274Z,20.8
2018-03-03T06:09:17.341Z,20.8
2018-03-03T06:10:07.668Z,20.8
2018-03-03T06:10:57.453Z,20.8
2018-03-03T06:11:47.508Z,20.8
2018-03-03T06:12:37.819Z,20.8
2018-03-03T06:14:21.762Z,-97
2018-03-03T06:15:11.860Z,-97
2018-03-03T06:16:02.150Z,-97
2018-03-03T06:16:52.204Z,-97
2018-03-03T06:17:42.267Z,-97
2018-03-03T06:18:31.743Z,-97
2018-03-03T06:19:22.370Z,-97
2018-03-03T06:20:12.437Z,-97
2018-03-03T06:21:02.684Z,-97
2018-03-03T06:21:52.289Z,-97
2018-03-03T06:22:42.324Z,-97
2018-03-03T06:23:32.646Z,-97
2018-03-03T06:24:22.734Z,-97
2018-03-03T06:25:12.799Z,-97
2018-03-03T06:26:02.537Z,-97
2018-03-03T06:26:52.883Z,-97
2018-03-03T06:27:42.926Z,-97
2018-03-03T06:28:32.724Z,-97
2018-03-03T06:29:22.774Z,-97
2018-03-03T06:30:13.097Z,-97
2018-03-03T06:31:02.924Z,-97
2018-03-03T06:31:53.232Z,-97
2018-03-03T06:32:43.284Z,-97
2018-03-03T06:33:33.361Z,-97
2018-03-03T06:34:23.381Z,-97
2018-03-03T06:35:13.156Z,-97
2018-03-03T06:36:03.499Z,-97
2018-03-03T06:36:53.551Z,-97
2018-03-03T06:37:43.342Z,-97
2018-03-03T06:38:33.393Z,-97
2018-03-03T06:39:23.727Z,-97
2018-03-03T06:40:13.228Z,-97
2018-03-03T06:41:03.820Z,-97
2018-03-03T06:41:53.901Z,-97
2018-03-03T06:42:43.950Z,-97
2018-03-03T06:43:33.732Z,-97
2018-03-03T06:44:24.053Z,-97
2018-03-03T06:45:14.101Z,-97
2018-03-03T06:46:04.222Z,-97
2018-03-03T06:46:54.269Z,-97
2018-03-03T06:47:44.293Z,-97
2018-03-03T06:48:34.327Z,-97
2018-03-03T06:49:24.143Z,-97
2018-03-03T06:50:14.465Z,-97
2018-03-03T06:51:04.220Z,-97
2018-03-03T06:51:54.285Z,-97
2018-03-03T06:52:44.622Z,-97
2018-03-03T06:53:34.659Z,-97
2018-03-03T06:54:24.720Z,-97
2018-03-03T06:55:14.802Z,-97
2018-03-03T06:56:04.824Z,-97
2018-03-03T06:56:54.930Z,-97
2018-03-03T06:57:44.970Z,-97
2018-03-03T06:58:35.014Z,-97
2018-03-03T06:59:25.057Z,-97
2018-03-03T07:00:14.821Z,-97
2018-03-03T07:01:04.514Z,-97
2018-03-03T07:01:54.557Z,-97
2018-03-03T07:02:45.019Z,-97
2018-03-03T07:03:34.551Z,-97
2018-03-03T07:04:24.833Z,-97
2018-03-03T07:05:14.878Z,-97
2018-03-03T07:06:05.283Z,-97
2018-03-03T07:06:55.003Z,-97
2018-03-03T07:07:45.475Z,-97
2018-03-03T07:08:35.113Z,-97
2018-03-03T07:09:25.444Z,-97
2018-03-03T07:10:15.508Z,-97
2018-03-03T07:11:05.174Z,-97
2018-03-03T07:11:55.724Z,-97
2018-03-03T07:12:45.984Z,-97
2018-03-03T07:13:35.544Z,-97
2018-03-03T07:14:26.096Z,-97
2018-03-03T07:15:15.856Z,-97
2018-03-03T07:16:06.199Z,-97
2018-03-03T07:16:55.486Z,-97
2018-03-03T07:17:46.116Z,-97
2018-03-03T07:18:35.871Z,-97
2018-03-03T07:19:26.413Z,-97
2018-03-03T07:20:15.938Z,-97
2018-03-03T07:21:06.548Z,-97
2018-03-03T07:21:56.284Z,-97
2018-03-03T07:22:46.123Z,-97
2018-03-03T07:23:36.420Z,-97
2018-03-03T07:24:25.891Z,-97
2018-03-03T07:25:16.121Z,-97
2018-03-03T07:26:06.098Z,-97
2018-03-03T07:26:56.445Z,-97
2018-03-03T07:27:46.829Z,-97
2018-03-03T07:28:36.481Z,-97
2018-03-03T07:29:26.329Z,-97
2018-03-03T07:30:17.172Z,-97
2018-03-03T07:31:06.642Z,-97
2018-03-03T07:31:56.671Z,-97
2018-03-03T07:32:47.061Z,-97
2018-03-03T07:33:36.806Z,-97
2018-03-03T07:34:26.848Z,-97
2018-03-03T07:35:17.472Z,-97
2018-03-03T07:36:06.673Z,-97
2018-03-03T07:36:56.610Z,-97
2018-03-03T07:37:47.060Z,-97
2018-03-03T07:38:36.923Z,-97
2018-03-03T07:39:27.493Z,-97
2018-03-03T07:40:17.523Z,-97
2018-03-03T07:41:07.190Z,-97
2018-03-03T07:41:57.480Z,-97
2018-03-03T07:42:48.022Z,-97
2018-03-03T07:43:37.580Z,-97
2018-03-03T07:44:28.090Z,-97
2018-03-03T07:45:17.874Z,-97
2018-03-03T07:46:07.334Z,-97
2018-03-03T07:46:57.401Z,-97
2018-03-03T07:47:48.042Z,-97
2018-03-03T07:48:38.090Z,-97
2018-03-03T07:49:28.441Z,-97
2018-03-03T07:50:17.991Z,-97
2018-03-03T07:51:08.270Z,-97
2018-03-03T07:51:58.127Z,-97
2018-03-03T07:52:48.084Z,-97
2018-03-03T07:53:38.228Z,-97
2018-03-03T07:54:28.197Z,-97
2018-03-03T07:55:18.540Z,-97
2018-03-03T07:56:08.907Z,-97
2018-03-03T07:56:58.731Z,-97
2018-03-03T07:57:48.702Z,-97
2018-03-03T07:58:38.777Z,-97
2018-03-03T07:59:28.815Z,-97
2018-03-03T08:00:18.681Z,-97
2018-03-03T08:01:09.251Z,-97
2018-03-03T08:01:58.988Z,-97
2018-03-03T08:02:48.836Z,-97
2018-03-03T08:03:39.415Z,-97
2018-03-03T08:04:28.854Z,-97
2018-03-03T08:05:19.531Z,-97
2018-03-03T08:06:09.273Z,-97
2018-03-03T08:06:59.307Z,-97
2018-03-03T08:07:49.689Z,-97
2018-03-03T08:08:39.433Z,-97
2018-03-03T08:09:29.477Z,-97
2018-03-03T08:10:19.242Z,-97
2018-03-03T08:11:09.593Z,-97
2018-03-03T08:11:59.933Z,-97
2018-03-03T08:12:49.800Z,-97
2018-03-03T08:13:39.772Z,-97
2018-03-03T08:14:29.838Z,-97
2018-03-03T08:15:19.295Z,-97
2018-03-03T08:16:10.228Z,-97
2018-03-03T08:16:59.995Z,-97
2018-03-03T08:17:49.473Z,-97
2018-03-03T08:18:39.495Z,-97
2018-03-03T08:19:30.178Z,-97
2018-03-03T08:20:19.710Z,-97
2018-03-03T08:21:09.995Z,-97
2018-03-03T08:22:00.116Z,-97
2018-03-03T08:22:49.804Z,-97
2018-03-03T08:23:40.724Z,-97
2018-03-03T08:24:30.206Z,-97
2018-03-03T08:25:20.627Z,-97
2018-03-03T08:26:10.925Z,-97
2018-03-03T08:27:00.382Z,-97
2018-03-03T08:27:50.814Z,-97
2018-03-03T08:28:40.580Z,-97
2018-03-03T08:29:30.933Z,-97
2018-03-03T08:30:20.685Z,-97
2018-03-03T08:31:10.657Z,-97
2018-03-03T08:32:01.006Z,-97
2018-03-03T08:32:50.495Z,-97
2018-03-03T08:33:40.725Z,-97
2018-03-03T08:34:31.486Z,-97
2018-03-03T08:35:20.536Z,-97
2018-03-03T08:36:11.289Z,-97
2018-03-03T08:37:01.244Z,-97
2018-03-03T08:37:51.104Z,-97
2018-03-03T08:38:41.439Z,-97
2018-03-03T08:39:31.498Z,-97
2018-03-03T08:40:21.161Z,-97
2018-03-03T08:41:11.891Z,-97
2018-03-03T08:42:01.944Z,-97
2018-03-03T08:42:52.031Z,-97
2018-03-03T08:43:42.058Z,-97
2018-03-03T08:44:32.108Z,-97
2018-03-03T08:45:22.176Z,-97
2018-03-03T08:46:11.945Z,-97
2018-03-03T08:47:02.024Z,-97
2018-03-03T08:47:52.356Z,-97
2018-03-03T08:48:42.116Z,-97
2018-03-03T08:49:31.906Z,-97
2018-03-03T08:50:22.224Z,-97
2018-03-03T08:51:12.381Z,85
2018-03-03T08:52:01.969Z,20.6
2018-03-03T08:52:52.701Z,20.6
2018-03-03T08:53:42.478Z,20.6
2018-03-03T08:54:32.249Z,20.6
2018-03-03T08:55:22.881Z,20.6
2018-03-03T08:56:12.937Z,20.6
2018-03-03T08:57:02.705Z,20.6
2018-03-03T08:57:52.730Z,20.5
2018-03-03T08:58:43.113Z,20.5
2018-03-03T08:59:32.598Z,20.6
2018-03-03T09:00:22.935Z,20.5
2018-03-03T09:01:12.985Z,20.5
2018-03-03T09:02:02.755Z,20.6
2018-03-03T09:02:52.713Z,20.5
2018-03-03T09:03:42.670Z,20.6
2018-03-03T09:04:32.823Z,20.5
2018-03-03T09:05:22.974Z,20.5
2018-03-03T09:06:13.654Z,20.5
2018-03-03T09:07:03.115Z,20.5
2018-03-03T09:07:53.163Z,20.5
2018-03-03T09:08:43.005Z,20.5
2018-03-03T09:09:33.052Z,20.5
2018-03-03T09:10:23.607Z,20.5
2018-03-03T09:11:13.375Z,20.6
2018-03-03T09:12:03.237Z,20.5
2018-03-03T09:12:53.795Z,20.5
2018-03-03T09:13:43.650Z,20.5
2018-03-03T09:14:34.232Z,20.5
2018-03-03T09:15:24.024Z,20.5
2018-03-03T09:16:13.750Z,20.5
2018-03-03T09:17:03.588Z,20.5
2018-03-03T09:17:54.130Z,20.5
2018-03-03T09:18:43.730Z,20.5
2018-03-03T09:19:34.222Z,20.5
2018-03-03T09:20:24.013Z,20.5
2018-03-03T09:21:14.257Z,20.5
2018-03-03T09:22:04.023Z,20.5
2018-03-03T09:22:54.768Z,20.5
2018-03-03T09:23:44.345Z,20.5
2018-03-03T09:24:34.897Z,20.5
2018-03-03T09:25:24.732Z,20.5
2018-03-03T09:26:14.212Z,20.5
2018-03-03T09:27:04.487Z,20.5
2018-03-03T09:27:54.724Z,20.5
2018-03-03T09:28:44.499Z,20.5
2018-03-03T09:29:35.045Z,20.5
2018-03-03T09:30:25.015Z,20.5
2018-03-03T09:31:15.064Z,20.5
2018-03-03T09:32:04.918Z,20.5
2018-03-03T09:32:54.674Z,20.5
2018-03-03T09:33:44.748Z,20.5
2018-03-03T09:34:35.286Z,20.4
2018-03-03T09:35:25.576Z,20.4
2018-03-03T09:36:15.522Z,20.5
2018-03-03T09:37:05.356Z,20.5
2018-03-03T09:37:55.586Z,20.4
2018-03-03T09:38:45.596Z,20.4
2018-03-03T09:39:35.755Z,20.5
2018-03-03T09:40:25.541Z,20.4
2018-03-03T09:41:15.855Z,20.5
2018-03-03T09:42:05.921Z,20.4
2018-03-03T09:42:55.590Z,20.4
2018-03-03T09:43:45.723Z,20.4
2018-03-03T09:44:35.792Z,20.5
2018-03-03T09:45:26.079Z,20.4
2018-03-03T09:46:16.194Z,20.5
2018-03-03T09:47:06.180Z,20.4
2018-03-03T09:47:55.916Z,20.4
2018-03-03T09:48:45.777Z,20.4
2018-03-03T09:49:36.053Z,20.4
2018-03-03T09:50:25.812Z,20.4
2018-03-03T09:51:16.740Z,20.4
2018-03-03T09:52:06.330Z,20.4
2018-03-03T09:52:56.472Z,20.4
2018-03-03T09:53:46.649Z,20.4
2018-03-03T09:54:36.500Z,20.4
2018-03-03T09:55:26.643Z,20.4
2018-03-03T09:56:16.120Z,20.4
2018-03-03T09:57:06.650Z,20.4
2018-03-03T09:57:57.017Z,20.4
2018-03-03T09:58:47.302Z,20.4
2018-03-03T09:59:37.135Z,20.4
2018-03-03T10:00:26.912Z,20.4
2018-03-03T10:01:16.687Z,20.4
2018-03-03T10:02:07.268Z,20.4
2018-03-03T10:02:57.072Z,20.4
2018-03-03T10:03:46.932Z,20.4
2018-03-03T10:04:37.377Z,20.4
2018-03-03T10:05:26.869Z,20.4
2018-03-03T10:06:17.493Z,20.4
2018-03-03T10:07:07.275Z,20.4
2018-03-03T10:07:57.326Z,20.4
2018-03-03T10:08:46.789Z,20.4
2018-03-03T10:09:37.717Z,20.4
2018-03-03T10:10:28.079Z,20.4
2018-03-03T10:11:17.266Z,20.4
2018-03-03T10:12:08.192Z,20.4
2018-03-03T10:12:57.954Z,20.4
2018-03-03T10:13:47.813Z,20.4
2018-03-03T10:14:38.067Z,20.5
2018-03-03T10:15:28.420Z,20.5
2018-03-03T10:16:18.113Z,20.4
2018-03-03T10:17:08.222Z,20.5
2018-03-03T10:17:57.823Z,20.5
2018-03-03T10:18:48.376Z,20.5
2018-03-03T10:19:38.156Z,20.5
2018-03-03T10:20:28.219Z,20.5
2018-03-03T10:21:18.555Z,20.5
2018-03-03T10:22:08.286Z,20.5
2018-03-03T10:22:58.644Z,-97
2018-03-03T10:23:48.119Z,-97
2018-03-03T10:24:38.294Z,-97
2018-03-03T10:25:28.634Z,-97
2018-03-03T10:26:19.263Z,-97
2018-03-03T10:27:08.663Z,-97
2018-03-03T10:27:59.294Z,-97
2018-03-03T10:28:48.581Z,-97
2018-03-03T10:29:38.840Z,-97
2018-03-03T10:30:29.200Z,-97
2018-03-03T10:31:19.051Z,-97
2018-03-03T10:32:09.184Z,-97
2018-03-03T10:32:59.800Z,-97
2018-03-03T10:33:49.415Z,-97
2018-03-03T10:34:38.907Z,-97
2018-03-03T10:35:29.516Z,-97
2018-03-03T10:36:19.580Z,-97
2018-03-03T10:37:09.937Z,-97
2018-03-03T10:37:59.397Z,-97
2018-03-03T10:38:50.028Z,-97
2018-03-03T10:39:39.828Z,-97
2018-03-03T10:40:29.595Z,-97
2018-03-03T10:41:19.943Z,-97
2018-03-03T10:42:09.302Z,-97
2018-03-03T10:43:00.033Z,-97
2018-03-03T10:43:50.212Z,-97
2018-03-03T10:44:39.981Z,-97
2018-03-03T10:45:29.745Z,-97
2018-03-03T10:46:19.807Z,-97
2018-03-03T10:47:10.634Z,-97
2018-03-03T10:47:59.821Z,-97
2018-03-03T10:48:50.165Z,-97
2018-03-03T10:49:40.845Z,-97
2018-03-03T10:50:30.581Z,-97
2018-03-03T10:51:20.526Z,-97
2018-03-03T10:52:10.107Z,-97
2018-03-03T10:53:01.037Z,-97
2018-03-03T10:53:50.602Z,-97
2018-03-03T10:54:40.678Z,-97
2018-03-03T10:55:31.205Z,-97
2018-03-03T10:56:21.089Z,-97
2018-03-03T10:57:11.157Z,-97
2018-03-03T10:58:00.724Z,-97
2018-03-03T10:58:50.371Z,-97
2018-03-03T10:59:41.226Z,-97
2018-03-03T11:00:30.703Z,-97
2018-03-03T11:01:21.320Z,-97
2018-03-03T11:02:10.408Z,-97
2018-03-03T11:03:01.259Z,-97
2018-03-03T11:03:51.536Z,-97
2018-03-03T11:04:41.281Z,-97
2018-03-03T11:05:30.836Z,-97
2018-03-03T11:06:21.786Z,-97
2018-03-03T11:07:11.456Z,-97
2018-03-03T11:08:02.149Z,-97
2018-03-03T11:08:51.589Z,-97
2018-03-03T11:09:41.927Z,-97
2018-03-03T11:10:31.989Z,-97
2018-03-03T11:11:21.649Z,-97
2018-03-03T11:12:12.095Z,-97
2018-03-03T11:13:01.864Z,-97
2018-03-03T11:13:51.727Z,-97
2018-03-03T11:14:42.545Z,-97
2018-03-03T11:15:31.763Z,-97
2018-03-03T11:16:22.386Z,-97
2018-03-03T11:17:12.168Z,-97